Time;durP1;ratioP1;P1;durP2;ratioP2;P2;SDS_P1;SDS_P2;PMS_P1;PMS_P2;Temp;Humidity;BMP_temperature;BMP_pressure;BME280_temperature;BME280_humidity;BME280_pressure;Samples;Min_cycle;Max_cycle;Signal;HPM_P1;HPM_P2
2022/04/18 13:51:30;;;;;;;2.50;2.28;;;24.00;87.60;;;;;;6193077;22;20349;-56
2022/04/18 13:53:59;;;;;;;3.13;2.05;;;23.80;86.70;;;;;;6228251;22;20403;-52
2022/04/18 13:56:26;;;;;;;2.10;1.90;;;24.20;87.40;;;;;;6232577;22;20552;-56
2022/04/18 13:58:51;;;;;;;2.58;1.90;;;24.30;86.10;;;;;;6231295;22;20470;-57
2022/04/18 14:01:43;;;;;;;2.60;2.10;;;24.20;85.90;;;;;;6257936;22;20579;-57
2022/04/18 14:04:11;;;;;;;3.70;2.22;;;24.00;84.90;;;;;;6229105;22;20348;-55
2022/04/18 14:06:36;;;;;;;1.90;1.80;;;23.90;85.30;;;;;;6228821;22;20576;-50
2022/04/18 14:09:02;;;;;;;2.15;1.90;;;24.20;84.80;;;;;;6230015;22;20613;-54
2022/04/18 14:11:27;;;;;;;2.50;2.13;;;24.40;84.80;;;;;;6230290;22;20478;-52
2022/04/18 14:13:53;;;;;;;2.40;1.65;;;24.40;83.10;;;;;;6229935;22;20392;-56
2022/04/18 14:21:58;;;;;;;2.47;1.90;;;24.90;81.20;;;;;;6173887;22;20345;-54
2022/04/18 14:24:23;;;;;;;2.00;1.80;;;24.80;81.20;;;;;;6258113;22;20672;-53
2022/04/18 14:26:49;;;;;;;1.90;1.80;;;25.10;81.60;;;;;;6232400;22;20356;-55
2022/04/18 14:29:15;;;;;;;1.73;1.60;;;25.30;81.10;;;;;;6230604;22;20561;-53
2022/04/18 14:31:40;;;;;;;2.63;2.00;;;25.60;79.30;;;;;;6231415;22;20352;-55
2022/04/18 14:34:06;;;;;;;1.58;1.38;;;25.40;80.00;;;;;;6230924;22;20442;-55
2022/04/18 14:36:31;;;;;;;3.10;1.70;;;25.70;79.70;;;;;;6233438;22;20340;-56
2022/04/18 14:38:59;;;;;;;2.83;2.00;;;25.50;76.90;;;;;;6235071;22;20363;-55
2022/04/18 14:41:24;;;;;;;1.98;1.60;;;25.60;76.20;;;;;;6235548;22;20344;-56
2022/04/18 14:43:50;;;;;;;2.77;1.60;;;25.50;74.90;;;;;;6262191;22;20378;-53
2022/04/18 14:46:15;;;;;;;3.00;1.90;;;25.80;76.20;;;;;;6235707;22;20467;-53
2022/04/18 14:48:41;;;;;;;2.17;1.80;;;25.90;74.50;;;;;;6235109;22;20684;-56
2022/04/18 14:51:06;;;;;;;1.47;1.37;;;26.10;76.30;;;;;;6262982;22;20618;-53
2022/04/18 14:53:32;;;;;;;3.40;2.03;;;26.00;75.50;;;;;;6253076;22;20663;-55
2022/04/18 14:55:58;;;;;;;2.97;2.17;;;25.90;74.10;;;;;;6258149;22;20384;-56
2022/04/18 14:58:23;;;;;;;1.88;1.50;;;25.90;73.30;;;;;;6260882;22;20693;-54
2022/04/18 15:00:49;;;;;;;2.33;1.70;;;26.00;74.30;;;;;;6261363;22;20768;-54
2022/04/18 15:03:15;;;;;;;2.17;1.70;;;26.30;74.60;;;;;;6261352;22;20352;-55
2022/04/18 15:05:41;;;;;;;3.13;1.80;;;26.10;72.50;;;;;;6267119;22;20367;-56
2022/04/18 15:08:07;;;;;;;2.37;1.83;;;26.00;71.60;;;;;;6265887;22;20360;-54
2022/04/18 15:10:32;;;;;;;2.15;1.95;;;26.00;72.50;;;;;;6267798;22;20378;-56
2022/04/18 15:12:58;;;;;;;2.17;1.97;;;26.10;73.60;;;;;;6267050;22;20383;-56
2022/04/18 15:15:24;;;;;;;2.30;1.67;;;26.10;74.00;;;;;;6266992;22;20389;-56
2022/04/18 15:17:56;;;;;;;1.73;1.63;;;26.10;72.50;;;;;;6262914;22;20348;-58
2022/04/18 15:20:21;;;;;;;1.77;1.48;;;26.00;72.90;;;;;;6262764;22;20344;-56
2022/04/18 15:22:47;;;;;;;1.87;1.73;;;26.10;72.50;;;;;;6263237;22;20348;-56
2022/04/18 15:25:12;;;;;;;1.53;1.43;;;25.70;71.80;;;;;;6263977;22;20845;-58
2022/04/18 15:27:39;;;;;;;2.17;1.60;;;25.80;73.00;;;;;;6264270;22;20629;-57
2022/04/18 15:32:50;;;;;;;2.47;1.97;;;26.00;71.70;;;;;;6266974;22;20382;-56
2022/04/18 15:35:15;;;;;;;2.63;2.13;;;25.80;70.90;;;;;;6265244;22;20352;-56
2022/04/18 15:37:41;;;;;;;3.13;1.93;;;25.20;69.30;;;;;;6266724;22;20351;-55
2022/04/18 15:40:07;;;;;;;2.58;1.77;;;25.30;70.70;;;;;;6268465;22;20443;-54
2022/04/18 15:42:32;;;;;;;2.58;2.05;;;25.50;71.80;;;;;;6269711;22;20629;-53
2022/04/18 15:44:59;;;;;;;4.17;2.20;;;25.40;72.00;;;;;;6270313;22;20363;-54
2022/04/18 15:47:28;;;;;;;2.45;1.70;;;25.30;71.60;;;;;;6268774;22;20367;-54
2022/04/18 15:49:54;;;;;;;2.58;1.60;;;25.40;73.00;;;;;;6268698;22;20443;-56
2022/04/18 15:52:20;;;;;;;2.20;1.77;;;25.50;73.50;;;;;;6266044;22;20396;-54
2022/04/18 15:54:45;;;;;;;3.15;1.90;;;25.40;73.20;;;;;;6241391;22;20353;-53
2022/04/18 15:57:11;;;;;;;2.63;1.97;;;25.50;72.30;;;;;;6240093;22;20715;-57
2022/04/18 15:59:36;;;;;;;2.03;1.83;;;25.50;71.80;;;;;;6241289;22;20417;-54
2022/04/18 16:02:02;;;;;;;2.13;1.73;;;25.40;70.70;;;;;;6266403;22;20344;-57
2022/04/18 16:04:28;;;;;;;2.42;1.90;;;25.40;70.50;;;;;;6242284;22;20363;-56
2022/04/18 16:06:54;;;;;;;2.03;1.83;;;25.50;71.30;;;;;;6240897;22;20360;-56
2022/04/18 16:09:19;;;;;;;1.53;1.43;;;25.60;72.00;;;;;;6266466;22;20359;-53
2022/04/18 16:11:45;;;;;;;3.88;1.70;;;25.70;71.70;;;;;;6239753;22;20340;-57
2022/04/18 16:14:10;;;;;;;2.30;2.10;;;25.50;72.00;;;;;;6265524;22;20355;-56
2022/04/18 16:16:37;;;;;;;2.77;2.10;;;25.70;73.00;;;;;;6237636;22;20355;-57
2022/04/18 16:19:03;;;;;;;2.53;2.33;;;25.90;73.90;;;;;;6236793;22;20363;-58
2022/04/18 16:21:29;;;;;;;3.10;2.28;;;26.00;74.30;;;;;;6237232;22;20657;-55
2022/04/18 16:23:56;;;;;;;4.22;3.58;;;25.60;72.00;;;;;;6213952;22;20840;-57
2022/04/18 16:26:23;;;;;;;5.32;4.32;;;25.80;73.00;;;;;;6237853;22;20360;-54
2022/04/18 16:28:49;;;;;;;6.97;5.10;;;25.70;72.30;;;;;;6238291;22;20360;-58
2022/04/18 16:33:59;;;;;;;7.85;6.07;;;25.80;73.00;;;;;;6269181;22;20366;-54
2022/04/18 16:36:31;;;;;;;4.43;4.03;;;25.90;72.40;;;;;;6243311;22;20431;-56
2022/04/18 16:38:57;;;;;;;3.63;2.65;;;25.90;73.30;;;;;;6268405;22;20427;-54
2022/04/18 16:46:50;;;;;;;4.35;3.30;;;25.80;73.50;;;;;;6266556;22;20405;-54
2022/04/18 16:49:17;;;;;;;4.53;3.45;;;25.80;73.90;;;;;;6238061;22;20344;-57
2022/04/18 16:51:44;;;;;;;3.35;2.67;;;25.60;72.50;;;;;;6241320;22;20347;-57
2022/04/18 16:54:10;;;;;;;5.05;3.95;;;25.40;73.20;;;;;;6239972;22;20356;-57
2022/04/18 16:56:37;;;;;;;3.90;3.03;;;25.40;74.60;;;;;;6240005;22;20344;-55
2022/04/18 16:59:03;;;;;;;5.97;4.13;;;25.10;74.50;;;;;;6268385;22;20811;-54
2022/04/18 17:01:28;;;;;;;3.92;2.80;;;24.90;75.50;;;;;;6242769;22;20355;-56
2022/04/18 17:03:54;;;;;;;5.00;3.03;;;25.00;75.80;;;;;;6240561;22;20344;-55
2022/04/18 17:06:21;;;;;;;4.00;3.10;;;24.70;75.90;;;;;;6239129;22;20392;-56
2022/04/18 17:08:49;;;;;;;5.35;3.55;;;24.50;75.30;;;;;;6240782;22;20356;-55
2022/04/18 17:11:15;;;;;;;4.05;3.20;;;24.30;76.20;;;;;;6240165;22;20768;-55
2022/04/18 17:13:41;;;;;;;4.95;3.63;;;24.20;77.00;;;;;;6266026;22;20360;-56
2022/04/18 17:16:07;;;;;;;5.25;3.83;;;24.00;78.40;;;;;;6240154;22;20414;-55
2022/04/18 17:18:32;;;;;;;6.20;3.90;;;23.80;78.20;;;;;;6269741;22;20684;-55
2022/04/18 17:20:58;;;;;;;5.30;4.50;;;23.60;78.80;;;;;;6241710;22;20344;-52
2022/04/18 17:23:23;;;;;;;6.80;4.70;;;23.50;79.30;;;;;;6268492;22;20343;-56
2022/04/18 17:25:49;;;;;;;6.95;4.57;;;23.60;79.70;;;;;;6244219;22;20373;-51
2022/04/18 17:28:15;;;;;;;6.43;4.60;;;23.50;80.10;;;;;;6242917;22;20893;-56
2022/04/18 17:30:41;;;;;;;7.68;5.47;;;23.50;81.10;;;;;;6242411;22;20355;-52
2022/04/18 17:33:07;;;;;;;7.22;5.13;;;23.10;80.10;;;;;;6268072;22;20433;-52
2022/04/18 17:35:32;;;;;;;8.57;5.88;;;23.20;81.30;;;;;;6239880;22;20368;-51
2022/04/18 17:37:58;;;;;;;9.50;6.77;;;23.20;81.80;;;;;;6242812;22;20376;-53
2022/04/18 17:40:23;;;;;;;8.67;6.23;;;23.20;81.60;;;;;;6269684;22;20350;-54
2022/04/18 17:42:49;;;;;;;9.98;6.93;;;23.20;81.80;;;;;;6242676;22;20481;-56
2022/04/18 17:45:14;;;;;;;9.50;6.93;;;23.10;82.50;;;;;;6242574;22;20402;-53
2022/04/18 17:47:41;;;;;;;12.75;7.88;;;23.00;82.40;;;;;;6242405;22;20363;-57
2022/04/18 17:50:06;;;;;;;11.50;7.28;;;22.70;82.00;;;;;;6243494;22;20417;-54
2022/04/18 17:52:38;;;;;;;10.65;7.55;;;22.40;82.00;;;;;;6252888;22;20700;-54
2022/04/18 17:57:58;;;;;;;10.55;7.45;;;22.30;82.40;;;;;;6269332;22;20376;-53
2022/04/18 18:00:24;;;;;;;11.27;7.35;;;22.10;83.20;;;;;;6267244;22;20372;-57
2022/04/18 18:03:04;;;;;;;10.25;7.30;;;22.00;83.40;;;;;;6243282;22;20387;-55
2022/04/18 18:05:31;;;;;;;9.05;6.90;;;22.00;83.80;;;;;;6269330;22;20841;-56
2022/04/18 18:07:57;;;;;;;11.20;7.43;;;21.90;83.70;;;;;;6271065;22;20348;-56
2022/04/18 18:10:24;;;;;;;9.95;7.18;;;21.70;84.00;;;;;;6269683;22;20761;-57
2022/04/18 18:12:51;;;;;;;10.07;6.65;;;21.40;83.80;;;;;;6269612;22;20595;-55
2022/04/18 18:15:19;;;;;;;8.63;6.03;;;21.00;85.10;;;;;;6269796;22;20360;-55
2022/04/18 18:17:47;;;;;;;9.45;6.07;;;21.00;84.60;;;;;;6269343;22;20416;-52
2022/04/18 18:20:14;;;;;;;8.35;6.05;;;20.80;83.80;;;;;;6269100;22;20850;-54
2022/04/18 18:22:40;;;;;;;10.18;6.57;;;20.70;84.20;;;;;;6268801;22;20344;-52
2022/04/18 18:25:10;;;;;;;9.65;5.88;;;20.70;84.20;;;;;;6266883;22;20611;-54
2022/04/18 18:27:44;;;;;;;8.52;6.00;;;20.80;85.00;;;;;;6266277;22;20367;-52
2022/04/18 18:30:11;;;;;;;7.85;5.82;;;20.90;84.80;;;;;;6265769;22;20699;-56
2022/04/18 18:32:42;;;;;;;7.43;5.75;;;20.80;84.80;;;;;;6266822;22;20352;-54
2022/04/18 18:35:10;;;;;;;9.45;5.80;;;20.70;84.80;;;;;;6268261;22;20591;-56
2022/04/18 18:37:38;;;;;;;7.22;4.85;;;20.60;84.60;;;;;;6243608;22;20360;-57
2022/04/18 18:40:09;;;;;;;7.28;4.80;;;20.40;84.30;;;;;;6269145;22;20439;-56
2022/04/18 18:42:48;;;;;;;9.02;4.80;;;20.40;85.00;;;;;;6270580;22;20340;-56
2022/04/18 18:48:37;;;;;;;6.30;4.50;;;20.30;85.20;;;;;;6270086;22;20343;-58
2022/04/18 18:53:49;;;;;;;4.97;4.00;;;20.20;87.70;;;;;;6267226;22;20442;-54
2022/04/18 18:56:17;;;;;;;5.60;3.80;;;20.20;86.90;;;;;;6215942;22;20665;-63
2022/04/18 18:58:43;;;;;;;5.78;3.85;;;20.10;86.20;;;;;;6239981;22;20420;-56
2022/04/18 19:01:09;;;;;;;5.70;4.00;;;19.90;84.70;;;;;;6240695;22;20489;-61
2022/04/18 19:03:36;;;;;;;5.50;3.80;;;19.70;85.80;;;;;;6215755;22;20368;-60
2022/04/18 19:06:05;;;;;;;5.18;4.00;;;19.60;85.70;;;;;;6241903;22;20360;-60
2022/04/18 19:08:32;;;;;;;5.25;4.13;;;19.60;85.40;;;;;;6242776;22;20359;-59
2022/04/18 19:10:59;;;;;;;5.30;4.13;;;19.60;85.20;;;;;;6244430;22;20344;-59
2022/04/18 19:13:30;;;;;;;6.35;4.28;;;19.60;85.40;;;;;;6244322;22;20386;-59
2022/04/18 19:15:57;;;;;;;4.43;3.78;;;19.40;85.60;;;;;;6242668;22;20799;-59
2022/04/18 19:26:40;;;;;;;5.60;4.10;;;19.10;86.20;;;;;;6270910;22;20359;-59
2022/04/18 19:29:11;;;;;;;5.18;3.90;;;19.10;87.60;;;;;;6243616;22;20349;-59
2022/04/18 19:31:43;;;;;;;5.20;3.88;;;19.00;87.50;;;;;;6243530;22;20356;-59
2022/04/18 19:34:09;;;;;;;4.70;3.55;;;18.90;87.30;;;;;;6242361;22;20366;-59
2022/04/18 19:36:36;;;;;;;4.95;3.65;;;18.90;87.80;;;;;;6243655;22;20367;-58
2022/04/18 19:39:06;;;;;;;4.88;3.95;;;18.90;88.40;;;;;;6244757;22;20404;-58
2022/04/18 19:41:41;;;;;;;4.75;3.63;;;18.90;88.80;;;;;;6244281;22;20352;-59
2022/04/18 19:44:30;;;;;;;4.80;3.35;;;18.80;88.40;;;;;;6244750;22;20644;-59
2022/04/18 19:46:56;;;;;;;4.28;3.55;;;18.70;88.70;;;;;;6245796;22;20728;-58
2022/04/18 19:49:35;;;;;;;7.97;3.78;;;18.70;88.90;;;;;;6268047;22;20372;-59
2022/04/18 19:52:31;;;;;;;5.70;3.75;;;18.60;88.70;;;;;;6268343;22;20402;-60
2022/04/18 19:55:01;;;;;;;5.67;3.50;;;18.40;89.00;;;;;;6268696;22;20345;-60
2022/04/18 19:57:27;;;;;;;6.00;3.47;;;18.40;89.30;;;;;;6268227;22;20784;-59
2022/04/18 19:59:54;;;;;;;4.47;2.95;;;18.40;89.20;;;;;;6265670;22;20517;-58
2022/04/18 20:02:20;;;;;;;5.93;3.42;;;18.20;89.40;;;;;;6265588;22;20364;-60
2022/04/18 20:04:47;;;;;;;5.30;3.23;;;18.10;89.60;;;;;;6268322;22;20356;-60
2022/04/18 20:07:13;;;;;;;4.45;3.17;;;18.10;90.10;;;;;;6269412;22;20693;-59
2022/04/18 20:09:39;;;;;;;4.80;3.33;;;18.10;90.00;;;;;;6269852;22;20394;-59
2022/04/18 20:12:06;;;;;;;4.80;3.10;;;18.00;90.50;;;;;;6269154;22;20348;-58
2022/04/18 20:14:33;;;;;;;4.27;2.80;;;17.90;90.30;;;;;;6266614;22;20517;-56
2022/04/18 20:16:59;;;;;;;4.20;3.20;;;17.70;89.60;;;;;;6268313;22;20363;-57
2022/04/18 20:19:26;;;;;;;3.90;2.92;;;17.60;90.40;;;;;;6269205;22;20739;-59
2022/04/18 20:21:55;;;;;;;3.72;2.70;;;17.50;90.60;;;;;;6268221;22;20473;-59
2022/04/18 20:24:22;;;;;;;6.20;3.27;;;17.50;90.90;;;;;;6268313;22;20421;-58
2022/04/18 20:26:49;;;;;;;4.87;3.40;;;17.50;90.90;;;;;;6267054;22;20364;-59
2022/04/18 20:29:14;;;;;;;5.72;3.40;;;17.40;90.60;;;;;;6268131;22;20351;-56
2022/04/18 20:31:42;;;;;;;4.70;3.17;;;17.30;90.80;;;;;;6269220;22;20344;-58
2022/04/18 20:34:10;;;;;;;5.70;3.80;;;17.30;91.30;;;;;;6268034;22;20352;-59
2022/04/18 20:36:36;;;;;;;5.18;3.80;;;17.20;91.10;;;;;;6268762;22;20364;-59
2022/04/18 20:39:03;;;;;;;5.90;3.80;;;17.10;91.20;;;;;;6269367;22;20741;-60
2022/04/18 20:41:30;;;;;;;6.82;3.67;;;17.10;91.30;;;;;;6270930;22;20352;-59
2022/04/18 20:43:58;;;;;;;4.57;3.50;;;17.10;91.20;;;;;;6270768;22;20348;-59
2022/04/18 20:46:23;;;;;;;5.78;3.70;;;17.00;91.50;;;;;;6271834;22;20447;-59
2022/04/18 20:48:52;;;;;;;5.53;3.50;;;16.90;91.60;;;;;;6245955;22;20392;-58
2022/04/18 20:51:20;;;;;;;6.40;3.90;;;16.90;91.50;;;;;;6272136;22;20435;-59
2022/04/18 20:59:19;;;;;;;5.90;3.47;;;16.50;91.70;;;;;;6271296;22;20347;-58
2022/04/18 21:01:47;;;;;;;4.67;2.87;;;16.50;92.00;;;;;;6244022;22;20403;-59
2022/04/18 21:04:13;;;;;;;4.85;3.22;;;16.50;92.00;;;;;;6240915;22;20352;-58
2022/04/18 21:06:45;;;;;;;5.47;3.43;;;16.50;92.40;;;;;;6241375;22;20614;-58
2022/04/18 21:09:13;;;;;;;4.38;2.88;;;16.50;92.40;;;;;;6242891;22;20392;-59
2022/04/18 21:11:39;;;;;;;4.00;2.80;;;16.50;92.30;;;;;;6220003;22;20650;-59
2022/04/18 21:14:07;;;;;;;5.80;3.40;;;16.50;92.40;;;;;;6245704;22;20374;-59
2022/04/18 21:16:34;;;;;;;4.40;3.00;;;16.50;92.40;;;;;;6243990;22;20437;-59
2022/04/18 21:19:01;;;;;;;4.43;2.92;;;16.40;92.50;;;;;;6243672;22;20502;-59
2022/04/18 21:21:29;;;;;;;5.33;2.90;;;16.30;92.50;;;;;;6243052;22;20348;-58
2022/04/18 21:23:56;;;;;;;4.60;2.85;;;16.30;92.60;;;;;;6244476;22;20347;-59
2022/04/18 21:26:26;;;;;;;4.00;2.47;;;16.30;92.70;;;;;;6242210;22;20816;-57
2022/04/18 21:28:52;;;;;;;4.47;2.35;;;16.20;92.70;;;;;;6266616;22;20990;-60
2022/04/18 21:31:21;;;;;;;6.57;2.93;;;16.00;92.60;;;;;;6240061;22;20599;-59
2022/04/18 21:33:46;;;;;;;3.65;2.53;;;16.00;92.90;;;;;;6240623;22;20387;-59
2022/04/18 21:39:00;;;;;;;3.55;2.20;;;15.90;93.10;;;;;;6267685;22;20446;-59
2022/04/18 21:41:26;;;;;;;4.32;2.60;;;15.80;93.00;;;;;;6242942;22;20355;-59
2022/04/18 21:43:53;;;;;;;2.60;2.20;;;15.70;93.00;;;;;;6269065;22;20503;-58
2022/04/18 21:46:20;;;;;;;3.42;2.38;;;15.60;93.00;;;;;;6243730;22;20376;-55
2022/04/18 21:48:47;;;;;;;3.13;2.15;;;15.70;93.30;;;;;;6243411;22;20364;-60
2022/04/18 21:51:14;;;;;;;2.95;2.10;;;15.50;93.00;;;;;;6243464;22;20744;-60
2022/04/18 21:53:42;;;;;;;2.28;2.08;;;15.40;93.40;;;;;;6269272;22;20332;-57
2022/04/18 21:56:10;;;;;;;3.47;2.50;;;15.40;93.90;;;;;;6242997;22;20384;-58
2022/04/18 21:58:37;;;;;;;4.50;2.47;;;15.30;93.40;;;;;;6241887;22;20348;-60
2022/04/18 22:01:05;;;;;;;4.80;2.50;;;15.20;93.50;;;;;;6243794;22;20447;-58
2022/04/18 22:03:32;;;;;;;4.10;2.90;;;15.30;94.30;;;;;;6241538;22;20352;-60
2022/04/18 22:06:00;;;;;;;3.65;2.30;;;15.30;94.10;;;;;;6243237;22;20372;-60
2022/04/18 22:08:26;;;;;;;3.53;2.45;;;15.30;93.80;;;;;;6269046;22;20901;-60
2022/04/18 22:10:52;;;;;;;3.03;2.28;;;15.20;93.80;;;;;;6243086;22;20359;-54
2022/04/18 22:13:17;;;;;;;4.10;2.50;;;15.00;93.80;;;;;;6267467;22;20372;-57
2022/04/18 22:15:44;;;;;;;4.80;2.37;;;15.10;94.20;;;;;;6238236;22;20888;-59
2022/04/18 22:18:11;;;;;;;5.57;3.83;;;15.00;94.10;;;;;;6239605;22;20780;-58
2022/04/18 22:26:06;;;;;;;3.53;2.42;;;14.90;94.00;;;;;;6258280;22;20616;-54
2022/04/18 22:28:32;;;;;;;3.65;2.50;;;14.70;94.00;;;;;;6231026;22;20875;-57
2022/04/18 22:30:57;;;;;;;3.95;2.60;;;14.70;94.10;;;;;;6235450;22;20359;-55
2022/04/18 22:33:23;;;;;;;4.27;2.57;;;14.70;94.10;;;;;;6263097;22;20337;-55
2022/04/18 22:35:49;;;;;;;2.88;2.22;;;14.60;94.30;;;;;;6264670;22;20352;-58
2022/04/18 22:38:14;;;;;;;4.38;2.45;;;14.60;94.50;;;;;;6263673;22;20394;-57
2022/04/18 22:40:40;;;;;;;4.03;2.30;;;14.50;94.60;;;;;;6266163;22;20360;-56
2022/04/18 22:43:05;;;;;;;3.17;2.07;;;14.50;94.90;;;;;;6238162;22;20803;-58
2022/04/18 22:45:31;;;;;;;5.45;2.30;;;14.40;94.60;;;;;;6266173;22;20403;-58
2022/04/18 22:47:56;;;;;;;2.77;2.30;;;14.30;94.60;;;;;;6268614;22;20376;-58
2022/04/18 22:50:22;;;;;;;3.30;2.30;;;14.30;94.60;;;;;;6268968;22;20355;-57
2022/04/18 22:52:49;;;;;;;2.95;2.25;;;14.30;94.60;;;;;;6271081;22;20444;-56
2022/04/18 22:55:14;;;;;;;3.33;2.23;;;14.30;94.70;;;;;;6270903;22;20623;-56
2022/04/18 22:57:40;;;;;;;2.90;2.10;;;14.10;94.60;;;;;;6243199;22;20840;-57
2022/04/18 23:00:08;;;;;;;3.33;2.10;;;14.20;94.90;;;;;;6242752;22;20364;-58
2022/04/18 23:02:34;;;;;;;3.50;2.28;;;14.20;95.10;;;;;;6242249;22;20348;-58
2022/04/18 23:07:44;;;;;;;3.30;2.15;;;14.10;95.10;;;;;;6268214;22;20367;-58
2022/04/18 23:10:11;;;;;;;2.47;1.98;;;14.00;95.50;;;;;;6239992;22;20344;-58
2022/04/18 23:12:40;;;;;;;2.95;2.15;;;14.00;95.60;;;;;;6240277;22;20431;-57
2022/04/18 23:15:06;;;;;;;2.67;2.17;;;13.90;95.70;;;;;;6266852;22;20989;-57
2022/04/18 23:17:34;;;;;;;2.38;1.90;;;13.80;95.70;;;;;;6238004;22;20757;-57
2022/04/18 23:20:18;;;;;;;3.90;2.00;;;13.70;95.70;;;;;;6265827;22;20430;-58
2022/04/18 23:22:47;;;;;;;3.75;1.88;;;13.70;95.60;;;;;;6237073;22;20352;-56
2022/04/18 23:25:13;;;;;;;2.30;1.73;;;13.60;95.70;;;;;;6239737;22;20433;-57
2022/04/18 23:27:40;;;;;;;2.90;1.98;;;13.60;95.80;;;;;;6239796;22;20368;-57
2022/04/18 23:30:09;;;;;;;3.30;1.77;;;13.60;96.10;;;;;;6242935;22;20382;-57
2022/04/18 23:32:35;;;;;;;2.78;1.70;;;13.60;96.20;;;;;;6269704;22;20402;-57
2022/04/18 23:35:01;;;;;;;2.78;1.73;;;13.60;96.10;;;;;;6242977;22;20335;-56
2022/04/18 23:37:27;;;;;;;3.60;1.77;;;13.60;96.00;;;;;;6243324;22;20352;-57
2022/04/18 23:42:36;;;;;;;2.38;1.77;;;13.40;96.00;;;;;;6273010;22;20786;-57
2022/04/18 23:45:02;;;;;;;2.23;1.63;;;13.40;96.20;;;;;;6274943;22;20391;-58
2022/04/18 23:47:28;;;;;;;2.23;1.57;;;13.40;96.40;;;;;;6275007;22;20387;-58
2022/04/18 23:50:47;;;;;;;2.60;1.80;;;13.20;96.50;;;;;;6245044;22;20547;-55
2022/04/18 23:52:39;;;;;;;3.40;1.88;;;13.10;96.60;;;;;;6272856;22;20345;-57
2022/04/18 23:55:06;;;;;;;3.87;1.80;;;13.10;96.70;;;;;;6246891;22;20349;-56
2022/04/18 23:57:32;;;;;;;3.22;1.70;;;13.10;96.90;;;;;;6246526;22;20733;-58
2022/04/18 23:59:57;;;;;;;2.07;1.80;;;13.10;97.10;;;;;;6244054;22;20391;-58
